createdAt,value
2023-04-16T00:01:38.400Z,92439.34
2023-04-16T00:04:21.469Z,92432.75
2023-04-16T00:07:04.494Z,92441.72
2023-04-16T00:09:48.655Z,92437.69
2023-04-16T00:12:31.508Z,92437.56
2023-04-16T00:15:14.538Z,92443.84
2023-04-16T00:17:57.439Z,92441.94
2023-04-16T00:20:40.403Z,92437.72
2023-04-16T00:23:25.224Z,92436.38
2023-04-16T00:26:09.827Z,92445.84
2023-04-16T00:28:55.442Z,92442.53
2023-04-16T00:31:38.650Z,92445.31
2023-04-16T00:34:21.474Z,92442.22
2023-04-16T00:37:04.401Z,92443.94
2023-04-16T00:39:48.017Z,92445.09
2023-04-16T00:42:33.155Z,92441.78
2023-04-16T00:45:15.975Z,92430.91
2023-04-16T00:48:00.688Z,92440.28
2023-04-16T00:50:43.820Z,92437.31
2023-04-16T00:53:26.967Z,92442.41
2023-04-16T00:56:10.843Z,92438.91
2023-04-16T00:58:56.172Z,92440.41
2023-04-16T01:01:39.056Z,92441.09
2023-04-16T01:04:22.475Z,92441.56
2023-04-16T01:07:05.404Z,92443.69
2023-04-16T01:09:48.425Z,92447.28
2023-04-16T01:12:31.312Z,92445.94
2023-04-16T01:15:15.606Z,92444.41
2023-04-16T01:17:58.587Z,92446.28
2023-04-16T01:20:43.197Z,92445.28
2023-04-16T01:23:26.108Z,92452.34
2023-04-16T01:26:09.298Z,92450.97
2023-04-16T01:28:52.123Z,92452.63
2023-04-16T01:31:34.974Z,92455.66
2023-04-16T01:34:25.547Z,92461.00
2023-04-16T01:37:09.805Z,92465.25
2023-04-16T01:39:52.797Z,92462.59
2023-04-16T01:42:35.639Z,92464.91
2023-04-16T01:45:18.556Z,92467.34
2023-04-16T01:48:02.124Z,92468.13
2023-04-16T01:50:45.276Z,92464.56
2023-04-16T01:53:29.648Z,92472.06
2023-04-16T01:56:12.527Z,92467.75
2023-04-16T01:58:55.407Z,92477.13
2023-04-16T02:01:39.687Z,92475.38
2023-04-16T02:04:22.661Z,92483.00
2023-04-16T02:07:05.966Z,92483.16
2023-04-16T02:09:51.258Z,92485.81
2023-04-16T02:12:34.137Z,92482.47
2023-04-16T02:15:17.118Z,92481.53
2023-04-16T02:18:00.508Z,92485.00
2023-04-16T02:20:43.959Z,92485.13
2023-04-16T02:23:26.857Z,92488.00
2023-04-16T02:26:13.526Z,92485.41
2023-04-16T02:28:56.697Z,92483.56
2023-04-16T02:31:44.854Z,92485.41
2023-04-16T02:34:29.155Z,92488.09
2023-04-16T02:37:12.087Z,92489.13
2023-04-16T02:39:54.914Z,92483.81
2023-04-16T02:42:39.139Z,92491.66
2023-04-16T02:45:23.299Z,92493.28
2023-04-16T02:48:07.336Z,92492.72
2023-04-16T02:50:50.303Z,92493.41
2023-04-16T02:53:33.254Z,92488.34
2023-04-16T02:56:16.355Z,92495.41
2023-04-16T02:59:00.655Z,92497.09
2023-04-16T03:01:43.630Z,92502.31
2023-04-16T03:04:26.648Z,92509.94
2023-04-16T03:07:11.166Z,92509.00
2023-04-16T03:09:53.944Z,92509.81
2023-04-16T03:12:36.987Z,92507.41
2023-04-16T03:15:24.171Z,92507.53
2023-04-16T03:18:07.108Z,92511.91
2023-04-16T03:20:52.848Z,92511.91
2023-04-16T03:23:36.422Z,92517.22
2023-04-16T03:26:20.857Z,92517.56
2023-04-16T03:29:04.834Z,92519.50
2023-04-16T03:31:49.839Z,92524.81
2023-04-16T03:34:32.965Z,92525.97
2023-04-16T03:37:16.332Z,92526.19
2023-04-16T03:39:59.295Z,92530.56
2023-04-16T03:42:42.330Z,92544.53
2023-04-16T03:45:25.238Z,92535.50
2023-04-16T03:48:09.833Z,92550.16
2023-04-16T03:50:52.645Z,92554.53
2023-04-16T03:53:36.695Z,92553.84
2023-04-16T03:56:19.616Z,92555.09
2023-04-16T03:59:02.604Z,92555.44
2023-04-16T04:01:45.528Z,92566.72
2023-04-16T04:04:30.020Z,92573.63
2023-04-16T04:07:13.883Z,92580.75
2023-04-16T04:09:56.918Z,92575.09
2023-04-16T04:12:39.778Z,92578.22
2023-04-16T04:15:23.142Z,92577.00
2023-04-16T04:18:06.049Z,92573.28
2023-04-16T04:20:50.356Z,92572.06
2023-04-16T04:23:36.694Z,92577.03
2023-04-16T04:26:19.538Z,92581.19
2023-04-16T04:29:02.473Z,92587.75
2023-04-16T04:31:46.422Z,92581.75
2023-04-16T04:34:29.380Z,92582.47
2023-04-16T04:37:15.645Z,92576.47
2023-04-16T04:39:59.771Z,92588.66
2023-04-16T04:42:42.659Z,92594.22
2023-04-16T04:45:26.738Z,92591.88
2023-04-16T04:48:10.597Z,92594.28
2023-04-16T04:50:53.908Z,92599.03
2023-04-16T04:53:38.139Z,92591.00
2023-04-16T04:56:21.775Z,92591.81
2023-04-16T04:59:05.305Z,92589.28
2023-04-16T05:01:49.883Z,92593.31
2023-04-16T05:04:32.877Z,92594.81
2023-04-16T05:07:15.807Z,92597.97
2023-04-16T05:10:00.055Z,92605.25
2023-04-16T05:12:42.908Z,92611.72
2023-04-16T05:15:25.864Z,92607.31
2023-04-16T05:18:08.692Z,92601.31
2023-04-16T05:20:51.545Z,92603.75
2023-04-16T05:23:34.399Z,92606.75
2023-04-16T05:26:18.574Z,92611.41
2023-04-16T05:29:01.443Z,92613.59
2023-04-16T05:31:44.306Z,92615.00
2023-04-16T05:34:27.162Z,92618.09
2023-04-16T05:37:09.977Z,92623.66
2023-04-16T05:39:52.843Z,92619.88
2023-04-16T05:42:37.028Z,92620.22
2023-04-16T05:45:20.031Z,92624.03
2023-04-16T05:48:02.866Z,92619.41
2023-04-16T05:50:45.728Z,92625.78
2023-04-16T05:53:28.646Z,92619.31
2023-04-16T05:56:11.497Z,92620.72
2023-04-16T05:58:55.933Z,92634.69
2023-04-16T06:01:38.784Z,92642.19
2023-04-16T06:04:21.602Z,92647.97
2023-04-16T06:07:04.770Z,92648.44
2023-04-16T06:09:47.627Z,92653.06
2023-04-16T06:12:31.036Z,92653.16
2023-04-16T06:15:15.397Z,92659.84
2023-04-16T06:18:00.714Z,92661.59
2023-04-16T06:20:43.867Z,92664.38
2023-04-16T06:23:26.697Z,92666.69
2023-04-16T06:26:09.603Z,92671.41
2023-04-16T06:28:52.432Z,92672.66
2023-04-16T06:31:36.876Z,92675.69
2023-04-16T06:34:19.730Z,92672.78
2023-04-16T06:37:02.601Z,92675.66
2023-04-16T06:39:45.421Z,92672.63
2023-04-16T06:42:28.491Z,92673.06
2023-04-16T06:45:12.760Z,92673.53
2023-04-16T06:47:58.933Z,92676.16
2023-04-16T06:50:42.443Z,92683.19
2023-04-16T06:53:25.562Z,92674.13
2023-04-16T06:56:09.106Z,92682.66
2023-04-16T06:58:52.173Z,92674.28
2023-04-16T07:01:35.253Z,92678.50
2023-04-16T07:04:19.591Z,92680.44
2023-04-16T07:07:02.489Z,92682.25
2023-04-16T07:09:45.354Z,92684.97
2023-04-16T07:12:28.289Z,92681.25
2023-04-16T07:15:12.175Z,92693.25
2023-04-16T07:17:55.043Z,92692.75
2023-04-16T07:20:39.235Z,92691.03
2023-04-16T07:23:22.092Z,92695.41
2023-04-16T07:26:04.971Z,92696.25
2023-04-16T07:28:47.846Z,92687.16
2023-04-16T07:31:31.103Z,92699.56
2023-04-16T07:34:14.195Z,92698.28
2023-04-16T07:36:58.395Z,92704.09
2023-04-16T07:39:41.303Z,92696.19
2023-04-16T07:42:24.189Z,92695.16
2023-04-16T07:45:08.130Z,92700.81
2023-04-16T07:47:51.046Z,92689.00
2023-04-16T07:50:33.969Z,92701.66
2023-04-16T07:53:18.165Z,92697.06
2023-04-16T07:56:01.005Z,92695.88
2023-04-16T07:58:43.841Z,92696.81
2023-04-16T08:01:26.798Z,92700.97
2023-04-16T08:04:09.763Z,92703.66
2023-04-16T08:06:53.095Z,92694.25
2023-04-16T08:09:37.503Z,92701.34
2023-04-16T08:12:21.284Z,92703.88
2023-04-16T08:15:04.185Z,92707.38
2023-04-16T08:17:47.070Z,92714.66
2023-04-16T08:20:30.322Z,92714.50
2023-04-16T08:23:13.161Z,92720.44
2023-04-16T08:25:57.378Z,92725.94
2023-04-16T08:28:40.182Z,92728.09
2023-04-16T08:31:23.217Z,92723.91
2023-04-16T08:34:06.182Z,92728.91
2023-04-16T08:36:49.093Z,92731.88
2023-04-16T08:39:31.948Z,92735.25
2023-04-16T08:42:24.621Z,92739.28
2023-04-16T08:45:09.562Z,92727.97
2023-04-16T08:47:53.547Z,92736.41
2023-04-16T08:50:37.100Z,92734.63
2023-04-16T08:53:22.761Z,92733.66
2023-04-16T08:56:09.144Z,92735.34
2023-04-16T08:58:56.274Z,92740.13
2023-04-16T09:01:41.664Z,92734.16
2023-04-16T09:04:28.224Z,92740.47
2023-04-16T09:07:12.113Z,92737.03
2023-04-16T09:09:55.754Z,92738.69
2023-04-16T09:12:38.633Z,92749.47
2023-04-16T09:15:23.540Z,92752.69
2023-04-16T09:18:06.438Z,92748.03
2023-04-16T09:20:50.237Z,92758.63
2023-04-16T09:23:33.070Z,92762.38
2023-04-16T09:26:15.965Z,92758.19
2023-04-16T09:28:58.797Z,92768.59
2023-04-16T09:31:43.014Z,92764.78
2023-04-16T09:34:25.848Z,92763.47
2023-04-16T09:37:18.442Z,92763.91
2023-04-16T09:40:03.687Z,92771.91
2023-04-16T09:42:46.560Z,92758.19
2023-04-16T09:45:34.038Z,92760.59
2023-04-16T09:48:30.034Z,92755.97
2023-04-16T09:51:13.024Z,92763.72
2023-04-16T09:53:58.404Z,92758.50
2023-04-16T09:56:42.716Z,92760.00
2023-04-16T09:59:25.559Z,92760.22
2023-04-16T10:02:14.576Z,92765.38
2023-04-16T10:05:02.621Z,92762.69
2023-04-16T10:07:45.540Z,92779.50
2023-04-16T10:10:28.450Z,92776.47
2023-04-16T10:13:12.777Z,92771.00
2023-04-16T10:15:57.390Z,92782.59
2023-04-16T10:18:41.876Z,92787.59
2023-04-16T10:21:33.821Z,92779.41
2023-04-16T10:24:18.049Z,92774.88
2023-04-16T10:27:01.176Z,92780.31
2023-04-16T10:29:45.082Z,92785.78
2023-04-16T10:32:28.886Z,92775.31
2023-04-16T10:35:17.409Z,92784.34
2023-04-16T10:38:22.494Z,92781.13
2023-04-16T10:41:06.701Z,92783.50
2023-04-16T10:43:51.994Z,92788.22
2023-04-16T10:46:39.015Z,92793.69
2023-04-16T10:49:26.431Z,92785.81
2023-04-16T10:52:12.545Z,92790.97
2023-04-16T10:54:56.788Z,92796.56
2023-04-16T10:57:39.678Z,92795.22
2023-04-16T11:00:25.887Z,92799.34
2023-04-16T11:03:08.818Z,92795.63
2023-04-16T11:05:51.767Z,92801.72
2023-04-16T11:08:36.718Z,92795.56
2023-04-16T11:11:29.649Z,92805.63
2023-04-16T11:14:13.713Z,92803.88
2023-04-16T11:16:56.579Z,92800.16
2023-04-16T11:19:40.113Z,92802.28
2023-04-16T11:22:23.130Z,92802.06
2023-04-16T11:25:06.811Z,92805.59
2023-04-16T11:27:51.960Z,92809.47
2023-04-16T11:30:38.237Z,92810.50
2023-04-16T11:33:21.314Z,92816.38
2023-04-16T11:36:04.319Z,92818.34
2023-04-16T11:38:48.187Z,92817.09
2023-04-16T11:41:31.018Z,92817.59
2023-04-16T11:44:22.554Z,92818.13
2023-04-16T11:47:07.691Z,92822.81
2023-04-16T11:49:50.937Z,92824.25
2023-04-16T11:52:36.435Z,92825.72
2023-04-16T11:55:19.852Z,92821.69
2023-04-16T11:58:13.006Z,92825.50
2023-04-16T12:00:59.832Z,92831.75
2023-04-16T12:03:46.888Z,92826.84
2023-04-16T12:06:32.055Z,92833.69
2023-04-16T12:09:24.878Z,92832.44
2023-04-16T12:12:08.498Z,92834.44
2023-04-16T12:14:52.084Z,92844.44
2023-04-16T12:17:37.485Z,92835.88
2023-04-16T12:20:20.313Z,92834.66
2023-04-16T12:23:03.188Z,92834.75
2023-04-16T12:25:46.457Z,92841.47
2023-04-16T12:28:31.038Z,92835.63
2023-04-16T12:31:14.881Z,92835.78
2023-04-16T12:34:04.263Z,92840.63
2023-04-16T12:37:09.454Z,92832.00
2023-04-16T12:39:52.241Z,92833.63
2023-04-16T12:42:36.693Z,92833.88
2023-04-16T12:45:19.777Z,92840.81
2023-04-16T12:48:02.702Z,92840.34
2023-04-16T12:50:46.922Z,92834.59
2023-04-16T12:53:29.751Z,92836.09
2023-04-16T12:56:12.535Z,92837.44
2023-04-16T12:58:55.397Z,92839.38
2023-04-16T13:01:38.371Z,92841.00
2023-04-16T13:04:24.274Z,92843.47
2023-04-16T13:07:09.683Z,92838.38
2023-04-16T13:09:52.521Z,92841.25
2023-04-16T13:12:35.378Z,92843.00
2023-04-16T13:15:18.235Z,92841.25
2023-04-16T13:18:01.157Z,92841.38
2023-04-16T13:20:44.015Z,92847.47
2023-04-16T13:23:28.245Z,92850.81
2023-04-16T13:26:13.019Z,92851.09
2023-04-16T13:28:55.686Z,92850.88
2023-04-16T13:31:39.110Z,92851.63
2023-04-16T13:34:21.931Z,92853.91
2023-04-16T13:37:04.743Z,92856.06
2023-04-16T13:39:48.907Z,92852.66
2023-04-16T13:42:32.419Z,92859.34
2023-04-16T13:45:15.309Z,92852.06
2023-04-16T13:47:58.272Z,92848.03
2023-04-16T13:50:41.295Z,92849.81
2023-04-16T13:53:25.181Z,92845.97
2023-04-16T13:56:09.384Z,92847.31
2023-04-16T13:58:52.307Z,92853.59
2023-04-16T14:01:35.376Z,92839.66
2023-04-16T14:04:18.338Z,92843.19
2023-04-16T14:07:01.235Z,92847.97
2023-04-16T14:09:44.071Z,92853.56
2023-04-16T14:12:28.439Z,92864.91
2023-04-16T14:15:11.651Z,92864.13
2023-04-16T14:17:54.864Z,92862.34
2023-04-16T14:20:39.814Z,92863.47
2023-04-16T14:23:23.216Z,92863.97
2023-04-16T14:26:06.065Z,92861.94
2023-04-16T14:28:51.558Z,92852.81
2023-04-16T14:31:34.440Z,92854.00
2023-04-16T14:34:17.573Z,92860.00
2023-04-16T14:37:00.637Z,92849.78
2023-04-16T14:39:45.056Z,92853.22
2023-04-16T14:42:27.845Z,92838.94
2023-04-16T14:45:12.118Z,92851.31
2023-04-16T14:47:54.975Z,92845.09
2023-04-16T14:50:38.847Z,92842.53
2023-04-16T14:53:21.718Z,92850.88
2023-04-16T14:56:04.729Z,92852.19
2023-04-16T14:58:47.568Z,92855.09
2023-04-16T15:01:32.244Z,92852.06
2023-04-16T15:04:15.127Z,92858.03
2023-04-16T15:06:59.188Z,92852.56
2023-04-16T15:09:42.074Z,92852.56
2023-04-16T15:12:24.978Z,92862.06
2023-04-16T15:15:09.450Z,92858.16
2023-04-16T15:17:53.734Z,92864.53
2023-04-16T15:20:36.894Z,92859.91
2023-04-16T15:23:19.730Z,92870.47
2023-04-16T15:26:02.571Z,92859.09
2023-04-16T15:28:45.395Z,92867.47
2023-04-16T15:31:28.321Z,92859.09
2023-04-16T15:34:12.653Z,92867.78
2023-04-16T15:36:55.509Z,92867.13
2023-04-16T15:39:38.359Z,92867.25
2023-04-16T15:42:21.142Z,92865.50
2023-04-16T15:45:03.947Z,92859.91
2023-04-16T15:47:51.074Z,92862.00
2023-04-16T15:50:35.800Z,92868.47
2023-04-16T15:53:18.507Z,92867.66
2023-04-16T15:56:01.560Z,92863.47
2023-04-16T15:58:44.419Z,92866.72
2023-04-16T16:01:27.209Z,92867.38
2023-04-16T16:04:10.163Z,92870.75
2023-04-16T16:06:54.556Z,92876.88
2023-04-16T16:09:37.377Z,92876.72
2023-04-16T16:12:20.284Z,92876.72
2023-04-16T16:15:03.236Z,92885.88
2023-04-16T16:17:46.222Z,92883.84
2023-04-16T16:20:29.028Z,92884.78
2023-04-16T16:23:13.172Z,92878.34
2023-04-16T16:25:56.074Z,92879.75
2023-04-16T16:28:38.998Z,92886.16
2023-04-16T16:31:21.851Z,92884.56
2023-04-16T16:34:04.701Z,92884.72
2023-04-16T16:36:47.600Z,92887.59
2023-04-16T16:39:31.785Z,92888.47
2023-04-16T16:42:18.517Z,92886.38
2023-04-16T16:45:05.106Z,92895.22
2023-04-16T16:47:48.800Z,92882.28
2023-04-16T16:50:32.438Z,92894.81
2023-04-16T16:53:15.216Z,92892.66
2023-04-16T16:55:59.358Z,92895.69
2023-04-16T16:58:42.846Z,92902.25
2023-04-16T17:01:26.112Z,92898.03
2023-04-16T17:04:09.099Z,92891.69
2023-04-16T17:06:52.282Z,92888.13
2023-04-16T17:09:35.522Z,92892.88
2023-04-16T17:12:19.685Z,92902.94
2023-04-16T17:15:02.534Z,92906.91
2023-04-16T17:17:45.419Z,92903.97
2023-04-16T17:20:28.233Z,92907.50
2023-04-16T17:23:11.022Z,92912.28
2023-04-16T17:25:54.029Z,92913.66
2023-04-16T17:28:38.184Z,92921.00
2023-04-16T17:31:21.462Z,92914.53
2023-04-16T17:34:05.868Z,92912.13
2023-04-16T17:36:49.501Z,92915.66
2023-04-16T17:39:32.298Z,92920.25
2023-04-16T17:42:15.296Z,92920.56
2023-04-16T17:44:59.425Z,92925.44
2023-04-16T17:47:42.372Z,92921.19
2023-04-16T17:50:27.333Z,92931.38
2023-04-16T17:53:10.099Z,92928.53
2023-04-16T17:55:54.563Z,92930.88
2023-04-16T17:58:38.882Z,92929.00
2023-04-16T18:01:23.149Z,92935.94
2023-04-16T18:04:06.175Z,92932.59
2023-04-16T18:06:49.216Z,92936.50
2023-04-16T18:09:32.376Z,92944.09
2023-04-16T18:12:15.258Z,92949.00
2023-04-16T18:14:58.486Z,92951.41
2023-04-16T18:17:42.666Z,92947.81
2023-04-16T18:20:25.507Z,92957.81
2023-04-16T18:23:08.333Z,92960.75
2023-04-16T18:25:51.296Z,92966.44
2023-04-16T18:28:34.940Z,92969.69
2023-04-16T18:31:20.935Z,92972.00
2023-04-16T18:34:05.632Z,92972.25
2023-04-16T18:36:48.494Z,92975.09
2023-04-16T18:39:33.562Z,92976.44
2023-04-16T18:42:16.380Z,92977.91
2023-04-16T18:44:59.421Z,92984.53
2023-04-16T18:47:42.695Z,92981.53
2023-04-16T18:50:27.243Z,92991.25
2023-04-16T18:53:10.114Z,92992.44
2023-04-16T18:55:53.989Z,92993.53
2023-04-16T18:58:36.773Z,92992.03
2023-04-16T19:01:19.624Z,93000.78
2023-04-16T19:04:03.348Z,92998.47
2023-04-16T19:06:48.518Z,93002.13
2023-04-16T19:09:31.465Z,92992.16
2023-04-16T19:12:14.275Z,92995.91
2023-04-16T19:14:57.083Z,93001.16
2023-04-16T19:17:40.339Z,93003.03
2023-04-16T19:20:23.218Z,93007.47
2023-04-16T19:23:09.078Z,93012.75
2023-04-16T19:25:52.117Z,93003.56
2023-04-16T19:28:34.975Z,93005.31
2023-04-16T19:31:17.940Z,93001.13
2023-04-16T19:34:00.754Z,93006.13
2023-04-16T19:36:44.931Z,93002.75
2023-04-16T19:39:29.172Z,93012.16
2023-04-16T19:42:12.000Z,93009.75
2023-04-16T19:44:54.923Z,93011.50
2023-04-16T19:47:37.837Z,93018.38
2023-04-16T19:50:20.967Z,93014.88
2023-04-16T19:53:03.786Z,93014.88
2023-04-16T19:55:47.903Z,93015.81
2023-04-16T19:58:30.729Z,93011.78
2023-04-16T20:01:13.653Z,93011.78
2023-04-16T20:03:56.560Z,93005.13
2023-04-16T20:06:39.413Z,93007.84
2023-04-16T20:09:22.247Z,93013.09
2023-04-16T20:12:06.932Z,93009.03
2023-04-16T20:14:49.586Z,93015.47
2023-04-16T20:17:32.400Z,93011.69
2023-04-16T20:20:15.880Z,93015.44
2023-04-16T20:22:59.705Z,93025.13
2023-04-16T20:25:43.442Z,93020.50
2023-04-16T20:28:28.010Z,93012.03
2023-04-16T20:31:10.879Z,93019.56
2023-04-16T20:33:54.070Z,93022.97
2023-04-16T20:36:37.031Z,93017.84
2023-04-16T20:39:20.360Z,93020.25
2023-04-16T20:42:04.280Z,93016.78
2023-04-16T20:44:50.616Z,93017.59
2023-04-16T20:47:34.928Z,93014.22
2023-04-16T20:50:18.177Z,93015.97
2023-04-16T20:53:00.952Z,93014.47
2023-04-16T20:55:44.224Z,93011.50
2023-04-16T20:58:27.054Z,93017.41
2023-04-16T21:01:11.543Z,93013.22
2023-04-16T21:03:54.571Z,93014.06
2023-04-16T21:06:38.538Z,93011.34
2023-04-16T21:09:21.615Z,93005.31
2023-04-16T21:12:04.969Z,93003.00
2023-04-16T21:14:47.717Z,93007.38
2023-04-16T21:17:32.197Z,93005.22
2023-04-16T21:20:15.859Z,93007.22
2023-04-16T21:22:59.109Z,93009.09
2023-04-16T21:25:41.935Z,93008.25
2023-04-16T21:28:24.721Z,93009.22
2023-04-16T21:31:07.685Z,93009.09
2023-04-16T21:33:51.881Z,93008.94
2023-04-16T21:36:35.116Z,93011.25
2023-04-16T21:39:19.774Z,93014.50
2023-04-16T21:42:02.916Z,93014.25
2023-04-16T21:44:45.720Z,93014.94
2023-04-16T21:47:28.551Z,93014.25
2023-04-16T21:50:13.800Z,93013.72
2023-04-16T21:52:56.590Z,93017.06
2023-04-16T21:55:40.638Z,93021.38
2023-04-16T21:58:23.652Z,93019.06
2023-04-16T22:01:08.298Z,93015.81
2023-04-16T22:03:52.544Z,93013.25
2023-04-16T22:06:36.931Z,93006.38
2023-04-16T22:09:19.711Z,93005.47
2023-04-16T22:12:02.692Z,93009.63
2023-04-16T22:14:59.638Z,93006.13
2023-04-16T22:17:45.539Z,93007.66
2023-04-16T22:20:30.759Z,93012.63
2023-04-16T22:23:15.025Z,93009.25
2023-04-16T22:25:57.835Z,93003.47
2023-04-16T22:28:40.710Z,93003.28
2023-04-16T22:31:23.710Z,93000.19
2023-04-16T22:34:06.480Z,93003.78
2023-04-16T22:36:49.347Z,93002.06
2023-04-16T22:39:33.468Z,93004.59
2023-04-16T22:42:16.252Z,93011.34
2023-04-16T22:44:59.083Z,93008.53
2023-04-16T22:47:43.198Z,93001.81
2023-04-16T22:50:25.981Z,93007.84
2023-04-16T22:53:08.872Z,93012.97
2023-04-16T22:55:53.010Z,93005.69
2023-04-16T22:58:35.829Z,93009.03
2023-04-16T23:01:18.658Z,93005.09
2023-04-16T23:04:01.502Z,93006.03
2023-04-16T23:06:44.351Z,93003.38
2023-04-16T23:09:27.111Z,93007.41
2023-04-16T23:12:11.229Z,93007.03
2023-04-16T23:14:54.178Z,93002.59
2023-04-16T23:17:37.015Z,93009.22
2023-04-16T23:20:19.997Z,93004.75
2023-04-16T23:23:02.934Z,93004.53
2023-04-16T23:25:45.757Z,93004.41
2023-04-16T23:28:29.921Z,93004.13
2023-04-16T23:31:12.762Z,93000.63
2023-04-16T23:33:55.586Z,92992.03
2023-04-16T23:36:39.229Z,92997.97
2023-04-16T23:39:22.025Z,92986.81
2023-04-16T23:42:04.959Z,92989.47
2023-04-16T23:44:49.087Z,92990.13
2023-04-16T23:47:31.937Z,92990.38
2023-04-16T23:50:14.777Z,92988.63
2023-04-16T23:52:57.656Z,92980.41
2023-04-16T23:55:40.447Z,92975.31
2023-04-16T23:58:23.241Z,92978.09
